sensor_id;sensor_type;location;lat;lon;timestamp;P1;durP1;ratioP1;P2;durP2;ratioP2
20657;SDS011;10488;50.846;4.078;2022-10-16T00:01:56;1.67;;;1.23;;
20657;SDS011;10488;50.846;4.078;2022-10-16T00:04:21;1.85;;;1.05;;
20657;SDS011;10488;50.846;4.078;2022-10-16T00:06:47;5.78;;;1.33;;
20657;SDS011;10488;50.846;4.078;2022-10-16T00:09:13;1.25;;;1.10;;
20657;SDS011;10488;50.846;4.078;2022-10-16T00:11:39;2.42;;;1.30;;
20657;SDS011;10488;50.846;4.078;2022-10-16T00:14:06;2.83;;;1.40;;
20657;SDS011;10488;50.846;4.078;2022-10-16T00:16:35;2.50;;;1.23;;
20657;SDS011;10488;50.846;4.078;2022-10-16T00:19:01;2.80;;;1.20;;
20657;SDS011;10488;50.846;4.078;2022-10-16T00:21:28;1.85;;;1.48;;
20657;SDS011;10488;50.846;4.078;2022-10-16T00:23:58;3.05;;;1.40;;
20657;SDS011;10488;50.846;4.078;2022-10-16T00:26:26;2.28;;;1.10;;
20657;SDS011;10488;50.846;4.078;2022-10-16T00:28:53;1.50;;;1.20;;
20657;SDS011;10488;50.846;4.078;2022-10-16T00:31:20;2.40;;;1.48;;
20657;SDS011;10488;50.846;4.078;2022-10-16T00:33:47;2.50;;;1.50;;
20657;SDS011;10488;50.846;4.078;2022-10-16T00:36:15;1.23;;;0.88;;
20657;SDS011;10488;50.846;4.078;2022-10-16T00:38:43;3.38;;;1.30;;
20657;SDS011;10488;50.846;4.078;2022-10-16T00:41:10;3.35;;;1.25;;
20657;SDS011;10488;50.846;4.078;2022-10-16T00:46:27;2.97;;;1.42;;
20657;SDS011;10488;50.846;4.078;2022-10-16T00:49:02;3.45;;;1.35;;
20657;SDS011;10488;50.846;4.078;2022-10-16T00:51:32;3.65;;;1.50;;
20657;SDS011;10488;50.846;4.078;2022-10-16T00:54:04;3.88;;;1.48;;
20657;SDS011;10488;50.846;4.078;2022-10-16T00:56:33;2.55;;;1.60;;
20657;SDS011;10488;50.846;4.078;2022-10-16T00:58:59;1.48;;;1.02;;
20657;SDS011;10488;50.846;4.078;2022-10-16T01:01:26;1.73;;;1.10;;
20657;SDS011;10488;50.846;4.078;2022-10-16T01:03:52;1.63;;;1.25;;
20657;SDS011;10488;50.846;4.078;2022-10-16T01:06:38;2.88;;;1.55;;
20657;SDS011;10488;50.846;4.078;2022-10-16T01:14:40;2.35;;;1.50;;
20657;SDS011;10488;50.846;4.078;2022-10-16T01:17:18;2.22;;;1.67;;
20657;SDS011;10488;50.846;4.078;2022-10-16T01:25:17;2.70;;;1.38;;
20657;SDS011;10488;50.846;4.078;2022-10-16T01:27:56;3.67;;;1.60;;
20657;SDS011;10488;50.846;4.078;2022-10-16T01:30:26;2.10;;;1.48;;
20657;SDS011;10488;50.846;4.078;2022-10-16T01:35:51;2.42;;;1.85;;
20657;SDS011;10488;50.846;4.078;2022-10-16T01:38:28;5.00;;;2.10;;
20657;SDS011;10488;50.846;4.078;2022-10-16T01:40:59;3.47;;;2.08;;
20657;SDS011;10488;50.846;4.078;2022-10-16T01:43:36;3.25;;;2.08;;
20657;SDS011;10488;50.846;4.078;2022-10-16T01:46:24;3.40;;;1.80;;
20657;SDS011;10488;50.846;4.078;2022-10-16T01:48:52;4.72;;;1.30;;
20657;SDS011;10488;50.846;4.078;2022-10-16T01:51:19;4.30;;;2.28;;
20657;SDS011;10488;50.846;4.078;2022-10-16T01:53:48;2.33;;;1.60;;
20657;SDS011;10488;50.846;4.078;2022-10-16T01:56:17;4.07;;;1.60;;
20657;SDS011;10488;50.846;4.078;2022-10-16T01:58:46;6.28;;;1.98;;
20657;SDS011;10488;50.846;4.078;2022-10-16T02:01:35;2.85;;;1.65;;
20657;SDS011;10488;50.846;4.078;2022-10-16T02:04:05;1.80;;;1.70;;
20657;SDS011;10488;50.846;4.078;2022-10-16T02:06:46;2.97;;;1.95;;
20657;SDS011;10488;50.846;4.078;2022-10-16T02:09:11;3.13;;;1.90;;
20657;SDS011;10488;50.846;4.078;2022-10-16T02:11:37;5.57;;;2.03;;
20657;SDS011;10488;50.846;4.078;2022-10-16T02:14:06;1.58;;;1.42;;
20657;SDS011;10488;50.846;4.078;2022-10-16T02:16:33;4.00;;;2.05;;
20657;SDS011;10488;50.846;4.078;2022-10-16T02:19:08;1.77;;;1.58;;
20657;SDS011;10488;50.846;4.078;2022-10-16T02:27:11;3.75;;;1.73;;
20657;SDS011;10488;50.846;4.078;2022-10-16T02:29:49;3.25;;;1.80;;
20657;SDS011;10488;50.846;4.078;2022-10-16T02:32:24;6.07;;;2.20;;
20657;SDS011;10488;50.846;4.078;2022-10-16T02:34:55;4.13;;;2.10;;
20657;SDS011;10488;50.846;4.078;2022-10-16T02:37:23;5.57;;;2.25;;
20657;SDS011;10488;50.846;4.078;2022-10-16T02:39:50;5.82;;;2.20;;
20657;SDS011;10488;50.846;4.078;2022-10-16T02:42:17;3.33;;;2.15;;
20657;SDS011;10488;50.846;4.078;2022-10-16T02:44:42;4.10;;;2.20;;
20657;SDS011;10488;50.846;4.078;2022-10-16T02:47:08;7.72;;;2.53;;
20657;SDS011;10488;50.846;4.078;2022-10-16T02:49:34;3.95;;;2.53;;
20657;SDS011;10488;50.846;4.078;2022-10-16T02:52:00;2.72;;;2.20;;
20657;SDS011;10488;50.846;4.078;2022-10-16T02:54:26;3.55;;;2.72;;
20657;SDS011;10488;50.846;4.078;2022-10-16T02:56:53;8.13;;;2.53;;
20657;SDS011;10488;50.846;4.078;2022-10-16T02:59:18;4.22;;;2.25;;
20657;SDS011;10488;50.846;4.078;2022-10-16T03:01:44;4.60;;;2.63;;
20657;SDS011;10488;50.846;4.078;2022-10-16T03:04:09;3.80;;;2.00;;
20657;SDS011;10488;50.846;4.078;2022-10-16T03:06:35;2.58;;;1.90;;
20657;SDS011;10488;50.846;4.078;2022-10-16T03:09:01;5.15;;;2.38;;
20657;SDS011;10488;50.846;4.078;2022-10-16T03:11:27;8.50;;;2.72;;
20657;SDS011;10488;50.846;4.078;2022-10-16T03:13:53;5.85;;;2.67;;
20657;SDS011;10488;50.846;4.078;2022-10-16T03:16:18;4.90;;;2.75;;
20657;SDS011;10488;50.846;4.078;2022-10-16T03:18:47;4.18;;;2.28;;
20657;SDS011;10488;50.846;4.078;2022-10-16T03:21:14;5.32;;;2.35;;
20657;SDS011;10488;50.846;4.078;2022-10-16T03:23:40;4.78;;;2.88;;
20657;SDS011;10488;50.846;4.078;2022-10-16T03:26:05;4.40;;;2.25;;
20657;SDS011;10488;50.846;4.078;2022-10-16T03:28:31;4.93;;;2.17;;
20657;SDS011;10488;50.846;4.078;2022-10-16T03:30:57;4.43;;;2.25;;
20657;SDS011;10488;50.846;4.078;2022-10-16T03:33:22;3.58;;;2.60;;
20657;SDS011;10488;50.846;4.078;2022-10-16T03:35:51;4.82;;;2.20;;
20657;SDS011;10488;50.846;4.078;2022-10-16T03:38:18;4.32;;;2.25;;
20657;SDS011;10488;50.846;4.078;2022-10-16T03:40:44;4.90;;;2.33;;
20657;SDS011;10488;50.846;4.078;2022-10-16T03:43:09;6.93;;;2.67;;
20657;SDS011;10488;50.846;4.078;2022-10-16T03:45:35;5.03;;;2.63;;
20657;SDS011;10488;50.846;4.078;2022-10-16T03:48:01;2.63;;;2.30;;
20657;SDS011;10488;50.846;4.078;2022-10-16T03:50:28;5.90;;;3.10;;
20657;SDS011;10488;50.846;4.078;2022-10-16T03:52:54;5.45;;;2.25;;
20657;SDS011;10488;50.846;4.078;2022-10-16T03:55:20;3.85;;;2.30;;
20657;SDS011;10488;50.846;4.078;2022-10-16T03:57:46;5.25;;;2.53;;
20657;SDS011;10488;50.846;4.078;2022-10-16T04:00:12;3.55;;;2.28;;
20657;SDS011;10488;50.846;4.078;2022-10-16T04:02:38;5.07;;;2.22;;
20657;SDS011;10488;50.846;4.078;2022-10-16T04:05:04;4.47;;;2.20;;
20657;SDS011;10488;50.846;4.078;2022-10-16T04:07:30;6.68;;;2.67;;
20657;SDS011;10488;50.846;4.078;2022-10-16T04:09:55;4.57;;;2.33;;
20657;SDS011;10488;50.846;4.078;2022-10-16T04:12:22;6.47;;;2.40;;
20657;SDS011;10488;50.846;4.078;2022-10-16T04:14:48;9.27;;;3.58;;
20657;SDS011;10488;50.846;4.078;2022-10-16T04:17:13;2.78;;;2.10;;
20657;SDS011;10488;50.846;4.078;2022-10-16T04:19:39;4.30;;;2.20;;
20657;SDS011;10488;50.846;4.078;2022-10-16T04:22:05;3.67;;;2.33;;
20657;SDS011;10488;50.846;4.078;2022-10-16T04:24:30;4.75;;;2.40;;
20657;SDS011;10488;50.846;4.078;2022-10-16T04:26:56;3.13;;;2.17;;
20657;SDS011;10488;50.846;4.078;2022-10-16T04:29:22;5.95;;;2.72;;
20657;SDS011;10488;50.846;4.078;2022-10-16T04:31:47;8.52;;;2.50;;
20657;SDS011;10488;50.846;4.078;2022-10-16T04:34:13;4.90;;;2.13;;
20657;SDS011;10488;50.846;4.078;2022-10-16T04:36:38;10.80;;;3.30;;
20657;SDS011;10488;50.846;4.078;2022-10-16T04:39:04;5.03;;;2.35;;
20657;SDS011;10488;50.846;4.078;2022-10-16T04:41:30;5.35;;;2.45;;
20657;SDS011;10488;50.846;4.078;2022-10-16T04:43:55;5.20;;;2.33;;
20657;SDS011;10488;50.846;4.078;2022-10-16T04:46:21;3.38;;;2.25;;
20657;SDS011;10488;50.846;4.078;2022-10-16T04:48:46;6.43;;;2.67;;
20657;SDS011;10488;50.846;4.078;2022-10-16T04:51:12;9.63;;;2.90;;
20657;SDS011;10488;50.846;4.078;2022-10-16T04:53:38;4.45;;;2.50;;
20657;SDS011;10488;50.846;4.078;2022-10-16T04:56:04;5.10;;;2.72;;
20657;SDS011;10488;50.846;4.078;2022-10-16T04:58:30;6.40;;;2.70;;
20657;SDS011;10488;50.846;4.078;2022-10-16T05:00:55;13.90;;;3.17;;
20657;SDS011;10488;50.846;4.078;2022-10-16T05:03:21;5.53;;;2.42;;
20657;SDS011;10488;50.846;4.078;2022-10-16T05:05:46;5.90;;;2.90;;
20657;SDS011;10488;50.846;4.078;2022-10-16T05:08:13;9.18;;;3.25;;
20657;SDS011;10488;50.846;4.078;2022-10-16T05:10:41;4.18;;;2.58;;
20657;SDS011;10488;50.846;4.078;2022-10-16T05:13:08;9.60;;;2.80;;
20657;SDS011;10488;50.846;4.078;2022-10-16T05:15:35;3.78;;;2.55;;
20657;SDS011;10488;50.846;4.078;2022-10-16T05:18:00;6.32;;;2.30;;
20657;SDS011;10488;50.846;4.078;2022-10-16T05:20:26;9.27;;;2.95;;
20657;SDS011;10488;50.846;4.078;2022-10-16T05:22:51;4.53;;;2.75;;
20657;SDS011;10488;50.846;4.078;2022-10-16T05:25:17;4.15;;;2.80;;
20657;SDS011;10488;50.846;4.078;2022-10-16T05:27:43;7.15;;;3.22;;
20657;SDS011;10488;50.846;4.078;2022-10-16T05:30:11;4.95;;;3.17;;
20657;SDS011;10488;50.846;4.078;2022-10-16T05:32:37;5.07;;;2.80;;
20657;SDS011;10488;50.846;4.078;2022-10-16T05:35:03;5.13;;;2.97;;
20657;SDS011;10488;50.846;4.078;2022-10-16T05:37:28;4.53;;;3.25;;
20657;SDS011;10488;50.846;4.078;2022-10-16T05:39:54;5.55;;;2.75;;
20657;SDS011;10488;50.846;4.078;2022-10-16T05:42:20;6.05;;;3.20;;
20657;SDS011;10488;50.846;4.078;2022-10-16T05:44:45;10.07;;;2.95;;
20657;SDS011;10488;50.846;4.078;2022-10-16T05:47:12;7.97;;;2.97;;
20657;SDS011;10488;50.846;4.078;2022-10-16T05:49:39;8.13;;;4.05;;
20657;SDS011;10488;50.846;4.078;2022-10-16T05:52:04;5.75;;;2.83;;
20657;SDS011;10488;50.846;4.078;2022-10-16T05:54:30;6.97;;;3.03;;
20657;SDS011;10488;50.846;4.078;2022-10-16T05:56:56;6.20;;;2.90;;
20657;SDS011;10488;50.846;4.078;2022-10-16T05:59:22;8.98;;;3.35;;
20657;SDS011;10488;50.846;4.078;2022-10-16T06:01:47;3.95;;;2.88;;
20657;SDS011;10488;50.846;4.078;2022-10-16T06:04:13;6.72;;;2.97;;
20657;SDS011;10488;50.846;4.078;2022-10-16T06:06:39;5.78;;;3.10;;
20657;SDS011;10488;50.846;4.078;2022-10-16T06:09:04;5.70;;;3.30;;
20657;SDS011;10488;50.846;4.078;2022-10-16T06:11:31;11.57;;;3.25;;
20657;SDS011;10488;50.846;4.078;2022-10-16T06:13:58;5.28;;;2.75;;
20657;SDS011;10488;50.846;4.078;2022-10-16T06:16:27;4.15;;;2.85;;
20657;SDS011;10488;50.846;4.078;2022-10-16T06:18:54;5.97;;;2.88;;
20657;SDS011;10488;50.846;4.078;2022-10-16T06:21:24;8.48;;;3.00;;
20657;SDS011;10488;50.846;4.078;2022-10-16T06:23:51;5.78;;;2.63;;
20657;SDS011;10488;50.846;4.078;2022-10-16T06:26:18;6.80;;;3.38;;
20657;SDS011;10488;50.846;4.078;2022-10-16T06:28:45;4.97;;;2.75;;
20657;SDS011;10488;50.846;4.078;2022-10-16T06:31:11;5.68;;;2.83;;
20657;SDS011;10488;50.846;4.078;2022-10-16T06:33:38;11.00;;;3.25;;
20657;SDS011;10488;50.846;4.078;2022-10-16T06:36:14;6.25;;;3.08;;
20657;SDS011;10488;50.846;4.078;2022-10-16T06:38:41;6.55;;;3.13;;
20657;SDS011;10488;50.846;4.078;2022-10-16T06:41:07;11.57;;;3.92;;
20657;SDS011;10488;50.846;4.078;2022-10-16T06:43:39;4.80;;;3.15;;
20657;SDS011;10488;50.846;4.078;2022-10-16T06:46:05;5.40;;;2.60;;
20657;SDS011;10488;50.846;4.078;2022-10-16T06:48:34;5.10;;;2.90;;
20657;SDS011;10488;50.846;4.078;2022-10-16T06:51:02;7.28;;;2.80;;
20657;SDS011;10488;50.846;4.078;2022-10-16T06:53:36;4.35;;;2.75;;
20657;SDS011;10488;50.846;4.078;2022-10-16T06:56:10;5.03;;;2.80;;
20657;SDS011;10488;50.846;4.078;2022-10-16T06:58:38;4.07;;;2.65;;
20657;SDS011;10488;50.846;4.078;2022-10-16T07:01:04;6.05;;;2.83;;
20657;SDS011;10488;50.846;4.078;2022-10-16T07:03:30;7.22;;;2.83;;
20657;SDS011;10488;50.846;4.078;2022-10-16T07:05:56;7.03;;;2.90;;
20657;SDS011;10488;50.846;4.078;2022-10-16T07:08:22;5.38;;;2.90;;
20657;SDS011;10488;50.846;4.078;2022-10-16T07:10:47;5.18;;;2.90;;
20657;SDS011;10488;50.846;4.078;2022-10-16T07:13:13;6.22;;;2.58;;
20657;SDS011;10488;50.846;4.078;2022-10-16T07:15:39;3.42;;;2.25;;
20657;SDS011;10488;50.846;4.078;2022-10-16T07:18:06;3.42;;;2.00;;
20657;SDS011;10488;50.846;4.078;2022-10-16T07:20:32;4.40;;;1.75;;
20657;SDS011;10488;50.846;4.078;2022-10-16T07:22:58;1.98;;;1.65;;
20657;SDS011;10488;50.846;4.078;2022-10-16T07:25:23;3.20;;;1.75;;
20657;SDS011;10488;50.846;4.078;2022-10-16T07:27:49;3.83;;;1.63;;
20657;SDS011;10488;50.846;4.078;2022-10-16T07:30:15;2.45;;;1.42;;
20657;SDS011;10488;50.846;4.078;2022-10-16T07:32:40;4.40;;;1.88;;
20657;SDS011;10488;50.846;4.078;2022-10-16T07:35:06;2.88;;;1.70;;
20657;SDS011;10488;50.846;4.078;2022-10-16T07:37:32;1.85;;;1.70;;
20657;SDS011;10488;50.846;4.078;2022-10-16T07:39:58;3.03;;;1.67;;
20657;SDS011;10488;50.846;4.078;2022-10-16T07:42:23;3.03;;;1.33;;
20657;SDS011;10488;50.846;4.078;2022-10-16T07:44:49;3.47;;;1.67;;
20657;SDS011;10488;50.846;4.078;2022-10-16T07:47:15;4.63;;;1.75;;
20657;SDS011;10488;50.846;4.078;2022-10-16T07:49:40;2.50;;;1.17;;
20657;SDS011;10488;50.846;4.078;2022-10-16T07:52:06;3.53;;;1.67;;
20657;SDS011;10488;50.846;4.078;2022-10-16T07:54:32;4.80;;;1.60;;
20657;SDS011;10488;50.846;4.078;2022-10-16T07:56:57;4.10;;;1.15;;
20657;SDS011;10488;50.846;4.078;2022-10-16T07:59:23;6.90;;;1.48;;
20657;SDS011;10488;50.846;4.078;2022-10-16T08:01:49;3.47;;;1.20;;
20657;SDS011;10488;50.846;4.078;2022-10-16T08:04:15;4.63;;;1.48;;
20657;SDS011;10488;50.846;4.078;2022-10-16T08:06:41;6.25;;;1.65;;
20657;SDS011;10488;50.846;4.078;2022-10-16T08:09:07;2.13;;;1.20;;
20657;SDS011;10488;50.846;4.078;2022-10-16T08:11:34;3.38;;;1.65;;
20657;SDS011;10488;50.846;4.078;2022-10-16T08:13:59;3.47;;;1.25;;
20657;SDS011;10488;50.846;4.078;2022-10-16T08:16:25;4.20;;;1.52;;
20657;SDS011;10488;50.846;4.078;2022-10-16T08:18:51;7.47;;;1.77;;
20657;SDS011;10488;50.846;4.078;2022-10-16T08:21:18;8.57;;;1.60;;
20657;SDS011;10488;50.846;4.078;2022-10-16T08:23:54;9.82;;;1.20;;
20657;SDS011;10488;50.846;4.078;2022-10-16T08:26:20;4.85;;;1.30;;
20657;SDS011;10488;50.846;4.078;2022-10-16T08:28:45;3.78;;;1.42;;
20657;SDS011;10488;50.846;4.078;2022-10-16T08:31:14;6.25;;;1.80;;
20657;SDS011;10488;50.846;4.078;2022-10-16T08:33:42;3.70;;;1.20;;
20657;SDS011;10488;50.846;4.078;2022-10-16T08:36:09;2.15;;;1.35;;
20657;SDS011;10488;50.846;4.078;2022-10-16T08:38:36;3.10;;;1.17;;
20657;SDS011;10488;50.846;4.078;2022-10-16T08:44:09;4.68;;;1.25;;
20657;SDS011;10488;50.846;4.078;2022-10-16T08:49:13;4.68;;;1.15;;
20657;SDS011;10488;50.846;4.078;2022-10-16T08:51:40;2.45;;;1.05;;
20657;SDS011;10488;50.846;4.078;2022-10-16T08:54:15;2.92;;;1.42;;
20657;SDS011;10488;50.846;4.078;2022-10-16T08:56:44;6.68;;;1.27;;
20657;SDS011;10488;50.846;4.078;2022-10-16T08:59:09;6.55;;;1.30;;
20657;SDS011;10488;50.846;4.078;2022-10-16T09:01:45;5.93;;;2.20;;
20657;SDS011;10488;50.846;4.078;2022-10-16T09:07:18;3.30;;;1.17;;
20657;SDS011;10488;50.846;4.078;2022-10-16T09:13:26;4.45;;;1.23;;
20657;SDS011;10488;50.846;4.078;2022-10-16T09:21:57;7.10;;;1.40;;
20657;SDS011;10488;50.846;4.078;2022-10-16T09:24:26;6.65;;;1.23;;
20657;SDS011;10488;50.846;4.078;2022-10-16T09:26:52;10.02;;;1.08;;
20657;SDS011;10488;50.846;4.078;2022-10-16T09:29:19;7.43;;;1.90;;
20657;SDS011;10488;50.846;4.078;2022-10-16T09:31:50;7.60;;;1.63;;
20657;SDS011;10488;50.846;4.078;2022-10-16T09:37:19;6.55;;;1.85;;
20657;SDS011;10488;50.846;4.078;2022-10-16T09:39:50;5.43;;;0.93;;
20657;SDS011;10488;50.846;4.078;2022-10-16T09:42:20;16.48;;;2.45;;
20657;SDS011;10488;50.846;4.078;2022-10-16T09:44:50;8.80;;;1.60;;
20657;SDS011;10488;50.846;4.078;2022-10-16T09:47:19;7.03;;;1.83;;
20657;SDS011;10488;50.846;4.078;2022-10-16T09:49:55;4.15;;;1.48;;
20657;SDS011;10488;50.846;4.078;2022-10-16T09:52:24;5.43;;;1.20;;
20657;SDS011;10488;50.846;4.078;2022-10-16T09:54:54;8.50;;;1.55;;
20657;SDS011;10488;50.846;4.078;2022-10-16T09:57:22;6.07;;;1.77;;
20657;SDS011;10488;50.846;4.078;2022-10-16T09:59:49;4.88;;;1.30;;
20657;SDS011;10488;50.846;4.078;2022-10-16T10:02:30;4.88;;;1.40;;
20657;SDS011;10488;50.846;4.078;2022-10-16T10:05:01;5.32;;;1.10;;
20657;SDS011;10488;50.846;4.078;2022-10-16T10:07:28;5.60;;;1.42;;
20657;SDS011;10488;50.846;4.078;2022-10-16T10:09:59;4.78;;;1.42;;
20657;SDS011;10488;50.846;4.078;2022-10-16T10:12:28;3.97;;;1.15;;
20657;SDS011;10488;50.846;4.078;2022-10-16T10:14:56;7.00;;;1.38;;
20657;SDS011;10488;50.846;4.078;2022-10-16T10:17:23;5.50;;;1.40;;
20657;SDS011;10488;50.846;4.078;2022-10-16T10:22:20;2.42;;;1.23;;
20657;SDS011;10488;50.846;4.078;2022-10-16T10:38:56;4.63;;;1.20;;
20657;SDS011;10488;50.846;4.078;2022-10-16T10:46:54;7.57;;;1.20;;
20657;SDS011;10488;50.846;4.078;2022-10-16T10:54:52;6.78;;;1.20;;
20657;SDS011;10488;50.846;4.078;2022-10-16T10:57:25;3.38;;;1.13;;
20657;SDS011;10488;50.846;4.078;2022-10-16T11:05:23;3.15;;;0.90;;
20657;SDS011;10488;50.846;4.078;2022-10-16T11:08:07;1.98;;;0.77;;
20657;SDS011;10488;50.846;4.078;2022-10-16T11:10:50;6.53;;;1.25;;
20657;SDS011;10488;50.846;4.078;2022-10-16T11:16:16;5.22;;;1.00;;
20657;SDS011;10488;50.846;4.078;2022-10-16T11:21:18;2.70;;;1.00;;
20657;SDS011;10488;50.846;4.078;2022-10-16T11:23:57;5.90;;;1.02;;
20657;SDS011;10488;50.846;4.078;2022-10-16T11:26:27;1.92;;;0.80;;
20657;SDS011;10488;50.846;4.078;2022-10-16T11:28:57;4.30;;;0.88;;
20657;SDS011;10488;50.846;4.078;2022-10-16T11:36:51;3.55;;;1.17;;
20657;SDS011;10488;50.846;4.078;2022-10-16T11:39:20;5.80;;;1.00;;
20657;SDS011;10488;50.846;4.078;2022-10-16T11:47:19;4.32;;;1.00;;
20657;SDS011;10488;50.846;4.078;2022-10-16T11:49:52;1.27;;;0.73;;
20657;SDS011;10488;50.846;4.078;2022-10-16T11:52:28;2.35;;;0.80;;
20657;SDS011;10488;50.846;4.078;2022-10-16T11:55:12;3.53;;;0.80;;
20657;SDS011;10488;50.846;4.078;2022-10-16T11:57:49;5.97;;;0.80;;
20657;SDS011;10488;50.846;4.078;2022-10-16T12:00:28;3.88;;;0.80;;
20657;SDS011;10488;50.846;4.078;2022-10-16T12:08:49;3.63;;;0.95;;
20657;SDS011;10488;50.846;4.078;2022-10-16T12:11:35;1.00;;;0.60;;
20657;SDS011;10488;50.846;4.078;2022-10-16T12:16:37;2.85;;;0.70;;
20657;SDS011;10488;50.846;4.078;2022-10-16T12:19:15;9.50;;;1.48;;
20657;SDS011;10488;50.846;4.078;2022-10-16T12:21:42;2.95;;;1.17;;
20657;SDS011;10488;50.846;4.078;2022-10-16T12:27:04;4.32;;;1.15;;
20657;SDS011;10488;50.846;4.078;2022-10-16T12:29:44;2.20;;;0.98;;
20657;SDS011;10488;50.846;4.078;2022-10-16T12:34:52;4.95;;;0.80;;
20657;SDS011;10488;50.846;4.078;2022-10-16T12:39:45;3.05;;;0.60;;
20657;SDS011;10488;50.846;4.078;2022-10-16T12:44:55;2.45;;;0.80;;
20657;SDS011;10488;50.846;4.078;2022-10-16T12:49:55;2.35;;;0.88;;
20657;SDS011;10488;50.846;4.078;2022-10-16T12:55:00;6.38;;;0.80;;
20657;SDS011;10488;50.846;4.078;2022-10-16T12:57:32;2.60;;;0.63;;
20657;SDS011;10488;50.846;4.078;2022-10-16T13:24:52;2.25;;;0.70;;
20657;SDS011;10488;50.846;4.078;2022-10-16T13:27:53;6.32;;;0.70;;
20657;SDS011;10488;50.846;4.078;2022-10-16T13:30:11;1.42;;;0.60;;
20657;SDS011;10488;50.846;4.078;2022-10-16T13:32:51;1.88;;;0.60;;
20657;SDS011;10488;50.846;4.078;2022-10-16T13:35:26;4.20;;;0.60;;
20657;SDS011;10488;50.846;4.078;2022-10-16T13:40:50;2.67;;;0.70;;
20657;SDS011;10488;50.846;4.078;2022-10-16T13:46:12;4.97;;;0.98;;
20657;SDS011;10488;50.846;4.078;2022-10-16T13:48:42;4.03;;;0.75;;
20657;SDS011;10488;50.846;4.078;2022-10-16T13:51:15;1.25;;;0.70;;
20657;SDS011;10488;50.846;4.078;2022-10-16T13:53:43;5.18;;;1.15;;
20657;SDS011;10488;50.846;4.078;2022-10-16T13:56:14;4.65;;;1.00;;
20657;SDS011;10488;50.846;4.078;2022-10-16T13:58:45;3.35;;;1.27;;
20657;SDS011;10488;50.846;4.078;2022-10-16T14:01:24;6.22;;;0.63;;
20657;SDS011;10488;50.846;4.078;2022-10-16T14:03:59;2.92;;;0.82;;
20657;SDS011;10488;50.846;4.078;2022-10-16T14:06:30;4.90;;;1.10;;
20657;SDS011;10488;50.846;4.078;2022-10-16T14:11:58;3.38;;;1.02;;
20657;SDS011;10488;50.846;4.078;2022-10-16T14:14:35;2.33;;;0.70;;
20657;SDS011;10488;50.846;4.078;2022-10-16T14:17:13;3.42;;;0.60;;
20657;SDS011;10488;50.846;4.078;2022-10-16T14:19:53;3.78;;;0.70;;
20657;SDS011;10488;50.846;4.078;2022-10-16T14:22:40;2.88;;;1.33;;
20657;SDS011;10488;50.846;4.078;2022-10-16T14:27:45;3.40;;;0.88;;
20657;SDS011;10488;50.846;4.078;2022-10-16T14:30:22;3.25;;;1.10;;
20657;SDS011;10488;50.846;4.078;2022-10-16T14:32:56;2.38;;;1.17;;
20657;SDS011;10488;50.846;4.078;2022-10-16T14:35:32;2.88;;;0.88;;
20657;SDS011;10488;50.846;4.078;2022-10-16T14:38:02;1.90;;;1.08;;
20657;SDS011;10488;50.846;4.078;2022-10-16T14:40:34;5.95;;;1.05;;
20657;SDS011;10488;50.846;4.078;2022-10-16T14:43:02;2.58;;;0.90;;
20657;SDS011;10488;50.846;4.078;2022-10-16T14:45:33;3.47;;;1.00;;
20657;SDS011;10488;50.846;4.078;2022-10-16T14:48:01;5.22;;;1.60;;
20657;SDS011;10488;50.846;4.078;2022-10-16T14:50:31;5.38;;;1.40;;
20657;SDS011;10488;50.846;4.078;2022-10-16T14:52:57;11.40;;;1.40;;
20657;SDS011;10488;50.846;4.078;2022-10-16T14:55:23;3.90;;;1.25;;
20657;SDS011;10488;50.846;4.078;2022-10-16T14:57:50;2.58;;;1.20;;
20657;SDS011;10488;50.846;4.078;2022-10-16T15:00:18;5.07;;;1.52;;
20657;SDS011;10488;50.846;4.078;2022-10-16T15:02:49;3.20;;;1.13;;
20657;SDS011;10488;50.846;4.078;2022-10-16T15:07:44;2.50;;;0.65;;
20657;SDS011;10488;50.846;4.078;2022-10-16T15:10:11;3.85;;;0.88;;
20657;SDS011;10488;50.846;4.078;2022-10-16T15:12:40;3.58;;;1.10;;
20657;SDS011;10488;50.846;4.078;2022-10-16T15:17:50;2.55;;;1.10;;
20657;SDS011;10488;50.846;4.078;2022-10-16T15:20:18;8.02;;;0.90;;
20657;SDS011;10488;50.846;4.078;2022-10-16T15:22:44;3.53;;;1.17;;
20657;SDS011;10488;50.846;4.078;2022-10-16T15:27:51;2.75;;;1.15;;
20657;SDS011;10488;50.846;4.078;2022-10-16T15:30:17;3.40;;;1.20;;
20657;SDS011;10488;50.846;4.078;2022-10-16T15:32:45;5.90;;;1.90;;
20657;SDS011;10488;50.846;4.078;2022-10-16T15:35:11;5.47;;;1.75;;
20657;SDS011;10488;50.846;4.078;2022-10-16T15:37:36;3.40;;;1.55;;
20657;SDS011;10488;50.846;4.078;2022-10-16T15:40:02;3.38;;;1.73;;
20657;SDS011;10488;50.846;4.078;2022-10-16T15:42:28;6.32;;;1.58;;
20657;SDS011;10488;50.846;4.078;2022-10-16T15:44:54;6.93;;;1.88;;
20657;SDS011;10488;50.846;4.078;2022-10-16T15:47:20;3.55;;;1.42;;
20657;SDS011;10488;50.846;4.078;2022-10-16T15:49:46;7.45;;;1.65;;
20657;SDS011;10488;50.846;4.078;2022-10-16T15:52:12;6.28;;;1.80;;
20657;SDS011;10488;50.846;4.078;2022-10-16T15:54:38;6.85;;;2.60;;
20657;SDS011;10488;50.846;4.078;2022-10-16T15:57:03;5.53;;;1.90;;
20657;SDS011;10488;50.846;4.078;2022-10-16T15:59:29;6.32;;;1.90;;
20657;SDS011;10488;50.846;4.078;2022-10-16T16:01:55;6.45;;;2.25;;
20657;SDS011;10488;50.846;4.078;2022-10-16T16:04:20;6.57;;;2.20;;
20657;SDS011;10488;50.846;4.078;2022-10-16T16:06:46;6.78;;;1.90;;
20657;SDS011;10488;50.846;4.078;2022-10-16T16:09:12;3.97;;;1.83;;
20657;SDS011;10488;50.846;4.078;2022-10-16T16:11:38;6.03;;;1.50;;
20657;SDS011;10488;50.846;4.078;2022-10-16T16:14:07;9.30;;;1.80;;
20657;SDS011;10488;50.846;4.078;2022-10-16T16:16:37;8.95;;;2.05;;
20657;SDS011;10488;50.846;4.078;2022-10-16T16:19:04;5.88;;;2.40;;
20657;SDS011;10488;50.846;4.078;2022-10-16T16:21:31;11.98;;;3.28;;
20657;SDS011;10488;50.846;4.078;2022-10-16T16:23:58;6.00;;;3.70;;
20657;SDS011;10488;50.846;4.078;2022-10-16T16:26:28;3.83;;;2.05;;
20657;SDS011;10488;50.846;4.078;2022-10-16T16:28:59;8.13;;;2.55;;
20657;SDS011;10488;50.846;4.078;2022-10-16T16:31:25;8.45;;;2.83;;
20657;SDS011;10488;50.846;4.078;2022-10-16T16:33:52;3.13;;;1.80;;
20657;SDS011;10488;50.846;4.078;2022-10-16T16:36:18;6.57;;;1.98;;
20657;SDS011;10488;50.846;4.078;2022-10-16T16:38:45;9.45;;;5.28;;
20657;SDS011;10488;50.846;4.078;2022-10-16T16:41:12;6.40;;;3.33;;
20657;SDS011;10488;50.846;4.078;2022-10-16T16:43:49;7.95;;;4.47;;
20657;SDS011;10488;50.846;4.078;2022-10-16T16:46:18;11.13;;;5.70;;
20657;SDS011;10488;50.846;4.078;2022-10-16T16:48:44;7.65;;;5.10;;
20657;SDS011;10488;50.846;4.078;2022-10-16T16:51:14;8.98;;;3.78;;
20657;SDS011;10488;50.846;4.078;2022-10-16T16:53:43;7.57;;;4.40;;
20657;SDS011;10488;50.846;4.078;2022-10-16T16:56:09;8.82;;;5.28;;
20657;SDS011;10488;50.846;4.078;2022-10-16T16:58:35;7.55;;;5.53;;
20657;SDS011;10488;50.846;4.078;2022-10-16T17:01:01;8.15;;;4.75;;
20657;SDS011;10488;50.846;4.078;2022-10-16T17:03:32;6.00;;;3.53;;
20657;SDS011;10488;50.846;4.078;2022-10-16T17:08:28;7.63;;;4.72;;
20657;SDS011;10488;50.846;4.078;2022-10-16T17:10:56;7.45;;;4.35;;
20657;SDS011;10488;50.846;4.078;2022-10-16T17:13:23;6.55;;;3.38;;
20657;SDS011;10488;50.846;4.078;2022-10-16T17:15:51;12.98;;;3.13;;
20657;SDS011;10488;50.846;4.078;2022-10-16T17:18:18;10.65;;;3.50;;
20657;SDS011;10488;50.846;4.078;2022-10-16T17:20:45;6.20;;;3.20;;
20657;SDS011;10488;50.846;4.078;2022-10-16T17:23:10;6.07;;;3.25;;
20657;SDS011;10488;50.846;4.078;2022-10-16T17:25:37;7.07;;;2.78;;
20657;SDS011;10488;50.846;4.078;2022-10-16T17:28:04;9.70;;;3.03;;
20657;SDS011;10488;50.846;4.078;2022-10-16T17:30:31;4.80;;;2.47;;
20657;SDS011;10488;50.846;4.078;2022-10-16T17:32:59;10.13;;;3.20;;
20657;SDS011;10488;50.846;4.078;2022-10-16T17:35:26;10.75;;;3.00;;
20657;SDS011;10488;50.846;4.078;2022-10-16T17:37:52;5.10;;;2.90;;
20657;SDS011;10488;50.846;4.078;2022-10-16T17:40:18;7.20;;;3.80;;